createdAt,value
2018-11-07T00:02:04.120Z,52.02
2018-11-07T00:04:32.659Z,51.73
2018-11-07T00:07:01.232Z,51.72
2018-11-07T00:09:29.779Z,51.71
2018-11-07T00:11:58.482Z,52.16
2018-11-07T00:14:26.970Z,51.84
2018-11-07T00:16:55.601Z,51.77
2018-11-07T00:19:24.171Z,51.57
2018-11-07T00:21:52.770Z,52.18
2018-11-07T00:24:21.422Z,51.85
2018-11-07T00:26:49.975Z,52.09
2018-11-07T00:29:18.536Z,51.51
2018-11-07T00:31:47.177Z,51.76
2018-11-07T00:34:15.783Z,51.72
2018-11-07T00:36:44.361Z,51.89
2018-11-07T00:39:13.323Z,52.23
2018-11-07T00:41:41.889Z,51.44
2018-11-07T00:44:10.589Z,51.71
2018-11-07T00:46:39.086Z,51.77
2018-11-07T00:49:07.622Z,52.29
2018-11-07T00:51:36.273Z,52.04
2018-11-07T00:54:05.029Z,52.11
2018-11-07T00:56:33.646Z,51.86
2018-11-07T00:59:02.282Z,52.13
2018-11-07T01:01:30.933Z,52.04
2018-11-07T01:03:59.604Z,52.43
2018-11-07T01:06:28.134Z,52.12
2018-11-07T01:08:56.642Z,51.85
2018-11-07T01:11:25.233Z,52.15
2018-11-07T01:13:53.869Z,52.23
2018-11-07T01:16:22.464Z,51.82
2018-11-07T01:18:50.949Z,52.10
2018-11-07T01:21:19.510Z,52.59
2018-11-07T01:23:47.980Z,52.08
2018-11-07T01:26:16.584Z,52.62
2018-11-07T01:28:45.215Z,52.81
2018-11-07T01:31:13.813Z,52.49
2018-11-07T01:33:42.600Z,52.09
2018-11-07T01:36:11.321Z,51.68
2018-11-07T01:38:39.911Z,52.16
2018-11-07T01:41:08.496Z,51.90
2018-11-07T01:43:37.087Z,51.54
2018-11-07T01:46:05.680Z,51.96
2018-11-07T01:48:34.205Z,51.80
2018-11-07T01:51:02.720Z,52.04
2018-11-07T01:53:31.298Z,52.41
2018-11-07T01:55:59.911Z,53.13
2018-11-07T01:58:28.460Z,53.28
2018-11-07T02:00:57.047Z,53.46
2018-11-07T02:03:25.660Z,53.31
2018-11-07T02:05:54.211Z,53.42
2018-11-07T02:08:26.420Z,53.66
2018-11-07T02:10:54.936Z,53.89
2018-11-07T02:13:23.461Z,54.23
2018-11-07T02:15:51.947Z,53.88
2018-11-07T02:18:20.547Z,53.59
2018-11-07T02:20:49.096Z,53.67
2018-11-07T02:23:17.640Z,53.59
2018-11-07T02:25:46.368Z,54.28
2018-11-07T02:28:14.948Z,54.12
2018-11-07T02:30:43.464Z,54.21
2018-11-07T02:33:12.592Z,54.29
2018-11-07T02:35:41.129Z,54.79
2018-11-07T02:38:09.716Z,54.61
2018-11-07T02:40:38.256Z,54.27
2018-11-07T02:43:06.801Z,54.74
2018-11-07T02:45:35.353Z,54.10
2018-11-07T02:48:03.951Z,54.09
2018-11-07T02:50:32.719Z,54.76
2018-11-07T02:53:01.283Z,54.67
2018-11-07T02:55:29.898Z,54.48
2018-11-07T02:57:58.520Z,55.08
2018-11-07T03:00:27.273Z,54.98
2018-11-07T03:02:55.947Z,54.81
2018-11-07T03:05:24.585Z,54.78
2018-11-07T03:07:53.153Z,54.85
2018-11-07T03:10:21.734Z,55.10
2018-11-07T03:12:50.221Z,54.57
2018-11-07T03:15:18.847Z,54.93
2018-11-07T03:17:47.355Z,54.94
2018-11-07T03:20:15.853Z,54.65
2018-11-07T03:22:44.442Z,54.63
2018-11-07T03:25:13.045Z,54.91
2018-11-07T03:27:41.629Z,54.50
2018-11-07T03:30:10.649Z,54.88
2018-11-07T03:32:39.296Z,54.84
2018-11-07T03:35:12.001Z,55.16
2018-11-07T03:37:40.587Z,55.33
2018-11-07T03:40:09.156Z,55.08
2018-11-07T03:42:37.805Z,55.22
2018-11-07T03:45:06.395Z,55.72
2018-11-07T03:47:34.993Z,55.41
2018-11-07T03:50:03.556Z,56.01
2018-11-07T03:52:32.906Z,55.39
2018-11-07T03:55:01.388Z,55.93
2018-11-07T03:57:30.025Z,55.51
2018-11-07T03:59:58.460Z,55.30
2018-11-07T04:02:27.039Z,55.30
2018-11-07T04:04:55.588Z,55.37
2018-11-07T04:07:24.136Z,56.10
2018-11-07T04:09:52.718Z,55.77
2018-11-07T04:12:21.267Z,55.91
2018-11-07T04:14:49.814Z,55.94
2018-11-07T04:17:18.348Z,56.03
2018-11-07T04:19:46.923Z,55.69
2018-11-07T04:22:15.480Z,55.93
2018-11-07T04:24:43.976Z,56.07
2018-11-07T04:27:12.512Z,55.92
2018-11-07T04:29:41.047Z,55.87
2018-11-07T04:32:09.644Z,55.95
2018-11-07T04:34:38.151Z,56.28
2018-11-07T04:37:06.587Z,56.19
2018-11-07T04:39:35.130Z,55.86
2018-11-07T04:42:03.639Z,55.64
2018-11-07T04:44:32.142Z,55.92
2018-11-07T04:47:00.619Z,56.25
2018-11-07T04:49:29.225Z,56.13
2018-11-07T04:51:57.791Z,56.05
2018-11-07T04:54:26.324Z,56.00
2018-11-07T04:56:54.891Z,56.07
2018-11-07T04:59:23.477Z,56.19
2018-11-07T05:01:52.010Z,56.66
2018-11-07T05:04:20.566Z,56.87
2018-11-07T05:06:49.088Z,56.10
2018-11-07T05:09:17.609Z,56.53
2018-11-07T05:11:46.153Z,56.22
2018-11-07T05:14:14.688Z,56.65
2018-11-07T05:16:43.207Z,56.73
2018-11-07T05:19:11.720Z,56.98
2018-11-07T05:21:40.186Z,56.43
2018-11-07T05:24:08.871Z,56.78
2018-11-07T05:26:37.399Z,57.11
2018-11-07T05:29:06.079Z,56.71
2018-11-07T05:31:34.604Z,56.51
2018-11-07T05:34:03.164Z,56.53
2018-11-07T05:36:31.661Z,56.19
2018-11-07T05:39:00.277Z,56.49
2018-11-07T05:41:28.834Z,56.48
2018-11-07T05:43:57.309Z,56.12
2018-11-07T05:46:25.832Z,56.61
2018-11-07T05:48:54.452Z,56.71
2018-11-07T05:51:23.003Z,56.68
2018-11-07T05:53:51.549Z,56.43
2018-11-07T05:56:20.067Z,56.04
2018-11-07T05:58:48.648Z,56.11
2018-11-07T06:01:17.312Z,56.29
2018-11-07T06:03:45.810Z,56.03
2018-11-07T06:06:14.339Z,56.29
2018-11-07T06:08:43.416Z,56.09
2018-11-07T06:11:11.916Z,56.16
2018-11-07T06:13:40.553Z,56.08
2018-11-07T06:16:09.199Z,55.82
2018-11-07T06:18:37.705Z,55.82
2018-11-07T06:21:06.265Z,55.63
2018-11-07T06:23:34.861Z,55.91
2018-11-07T06:26:03.533Z,55.55
2018-11-07T06:28:32.159Z,55.36
2018-11-07T06:31:00.686Z,55.42
2018-11-07T06:33:29.240Z,55.81
2018-11-07T06:35:57.854Z,55.88
2018-11-07T06:38:26.386Z,55.44
2018-11-07T06:40:54.949Z,55.19
2018-11-07T06:43:23.641Z,55.65
2018-11-07T06:45:52.170Z,55.19
2018-11-07T06:48:20.749Z,55.15
2018-11-07T06:50:49.567Z,55.55
2018-11-07T06:53:18.255Z,55.13
2018-11-07T06:55:46.908Z,54.52
2018-11-07T06:58:15.443Z,54.23
2018-11-07T07:00:44.065Z,54.62
2018-11-07T07:03:12.724Z,54.42
2018-11-07T07:05:41.289Z,54.59
2018-11-07T07:08:09.882Z,54.38
2018-11-07T07:10:38.527Z,54.39
2018-11-07T07:13:07.196Z,54.51
2018-11-07T07:15:35.778Z,54.38
2018-11-07T07:18:04.514Z,54.55
2018-11-07T07:20:33.149Z,53.70
2018-11-07T07:23:01.807Z,52.93
2018-11-07T07:25:30.528Z,53.56
2018-11-07T07:27:59.102Z,52.85
2018-11-07T07:30:27.847Z,51.17
2018-11-07T07:32:56.410Z,49.21
2018-11-07T07:35:25.057Z,47.79
2018-11-07T07:37:53.644Z,46.13
2018-11-07T07:40:22.206Z,45.04
2018-11-07T07:42:50.761Z,43.34
2018-11-07T07:45:20.264Z,41.79
2018-11-07T07:47:48.827Z,40.02
2018-11-07T07:50:21.840Z,39.10
2018-11-07T07:52:50.435Z,38.47
2018-11-07T07:55:19.025Z,37.64
2018-11-07T07:57:47.747Z,35.97
2018-11-07T08:00:17.644Z,35.44
2018-11-07T08:02:49.407Z,34.88
2018-11-07T08:05:18.111Z,33.36
2018-11-07T08:07:47.148Z,32.88
2018-11-07T08:10:18.124Z,32.29
2018-11-07T08:12:47.158Z,30.62
2018-11-07T08:15:16.356Z,30.91
2018-11-07T08:17:45.403Z,30.32
2018-11-07T08:20:15.061Z,28.68
2018-11-07T08:22:44.612Z,28.74
2018-11-07T08:25:13.360Z,28.21
2018-11-07T08:27:42.052Z,26.69
2018-11-07T08:30:13.898Z,26.69
2018-11-07T08:32:43.004Z,26.79
2018-11-07T08:35:13.275Z,26.04
2018-11-07T08:37:43.094Z,25.47
2018-11-07T08:40:17.762Z,24.94
2018-11-07T08:42:46.487Z,24.94
2018-11-07T08:45:15.299Z,24.74
2018-11-07T08:47:45.657Z,24.24
2018-11-07T08:50:16.168Z,23.91
2018-11-07T08:52:45.821Z,23.29
2018-11-07T08:55:16.880Z,22.69
2018-11-07T08:57:45.521Z,22.36
2018-11-07T09:00:18.250Z,21.87
2018-11-07T09:02:47.595Z,21.70
2018-11-07T09:05:17.073Z,20.72
2018-11-07T09:07:50.326Z,21.42
2018-11-07T09:10:22.338Z,20.98
2018-11-07T09:12:54.271Z,20.66
2018-11-07T09:15:25.233Z,19.43
2018-11-07T09:17:54.567Z,19.32
2018-11-07T09:20:24.213Z,19.06
2018-11-07T09:22:53.537Z,18.83
2018-11-07T09:25:22.363Z,18.08
2018-11-07T09:27:51.384Z,17.87
2018-11-07T09:30:22.461Z,18.24
2018-11-07T09:32:52.726Z,18.27
2018-11-07T09:35:22.498Z,17.63
2018-11-07T09:37:51.252Z,16.91
2018-11-07T09:40:21.101Z,16.33
2018-11-07T09:42:50.801Z,15.75
2018-11-07T09:45:21.001Z,15.59
2018-11-07T09:47:49.582Z,15.52
2018-11-07T09:50:19.139Z,15.58
2018-11-07T09:52:47.961Z,14.81
2018-11-07T09:55:20.772Z,14.53
2018-11-07T09:57:49.482Z,14.71
2018-11-07T10:00:19.380Z,14.23
2018-11-07T10:02:48.408Z,14.46
2018-11-07T10:05:19.086Z,13.42
2018-11-07T10:07:48.318Z,14.16
2018-11-07T10:10:19.299Z,14.29
2018-11-07T10:12:48.429Z,14.02
2018-11-07T10:15:17.339Z,13.54
2018-11-07T10:17:46.061Z,13.46
2018-11-07T10:20:18.239Z,13.27
2018-11-07T10:22:47.529Z,13.35
2018-11-07T10:25:16.766Z,12.80
2018-11-07T10:27:45.870Z,12.83
2018-11-07T10:30:15.915Z,13.56
2018-11-07T10:32:47.604Z,14.27
2018-11-07T10:35:16.993Z,15.22
2018-11-07T10:37:46.383Z,16.86
2018-11-07T10:40:19.630Z,17.14
2018-11-07T10:42:49.233Z,19.41
2018-11-07T10:45:18.451Z,18.73
2018-11-07T10:47:48.536Z,17.66
2018-11-07T10:50:18.984Z,16.36
2018-11-07T10:52:48.428Z,15.71
2018-11-07T10:55:17.864Z,15.04
2018-11-07T10:57:47.078Z,13.56
2018-11-07T11:00:21.843Z,12.46
2018-11-07T11:02:57.861Z,12.79
2018-11-07T11:05:27.649Z,12.83
2018-11-07T11:07:56.687Z,12.52
2018-11-07T11:10:25.749Z,12.48
2018-11-07T11:12:55.188Z,11.49
2018-11-07T11:15:23.941Z,11.79
2018-11-07T11:17:52.760Z,12.12
2018-11-07T11:20:21.696Z,13.58
2018-11-07T11:22:50.450Z,14.24
2018-11-07T11:25:19.258Z,15.59
2018-11-07T11:27:48.297Z,16.14
2018-11-07T11:30:17.362Z,17.25
2018-11-07T11:32:46.760Z,15.73
2018-11-07T11:35:15.738Z,14.16
2018-11-07T11:37:44.290Z,14.37
2018-11-07T11:40:15.618Z,14.99
2018-11-07T11:42:45.866Z,15.00
2018-11-07T11:45:15.775Z,14.90
2018-11-07T11:47:44.804Z,13.80
2018-11-07T11:50:15.127Z,13.21
2018-11-07T11:52:45.336Z,12.18
2018-11-07T11:55:14.058Z,13.36
2018-11-07T11:57:43.231Z,13.73
2018-11-07T12:00:14.135Z,14.72
2018-11-07T12:02:43.039Z,16.16
2018-11-07T12:05:13.474Z,16.61
2018-11-07T12:07:42.364Z,16.04
2018-11-07T12:10:19.988Z,16.09
2018-11-07T12:12:49.709Z,18.49
2018-11-07T12:15:19.494Z,19.39
2018-11-07T12:17:48.220Z,20.11
2018-11-07T12:20:16.857Z,20.58
2018-11-07T12:22:45.812Z,21.00
2018-11-07T12:25:15.117Z,19.65
2018-11-07T12:27:44.462Z,19.77
2018-11-07T12:30:17.102Z,19.71
2018-11-07T12:32:46.973Z,21.25
2018-11-07T12:35:20.155Z,22.08
2018-11-07T12:37:49.011Z,22.91
2018-11-07T12:40:19.212Z,23.84
2018-11-07T12:42:47.994Z,24.45
2018-11-07T12:45:17.253Z,25.85
2018-11-07T12:47:45.980Z,25.75
2018-11-07T12:50:19.347Z,26.17
2018-11-07T12:52:48.113Z,27.71
2018-11-07T12:55:17.216Z,27.41
2018-11-07T12:57:46.004Z,28.28
2018-11-07T13:00:21.623Z,29.18
2018-11-07T13:02:50.492Z,29.57
2018-11-07T13:05:22.506Z,29.77
2018-11-07T13:07:52.155Z,29.55
2018-11-07T13:10:21.616Z,30.13
2018-11-07T13:12:50.757Z,29.79
2018-11-07T13:15:19.374Z,30.79
2018-11-07T13:17:48.946Z,30.53
2018-11-07T13:20:25.241Z,30.02
2018-11-07T13:22:54.600Z,30.61
2018-11-07T13:25:24.027Z,30.47
2018-11-07T13:27:52.617Z,30.37
2018-11-07T13:30:22.106Z,30.74
2018-11-07T13:32:50.811Z,30.61
2018-11-07T13:35:20.235Z,30.31
2018-11-07T13:37:49.833Z,31.15
2018-11-07T13:40:20.911Z,30.96
2018-11-07T13:42:49.590Z,31.08
2018-11-07T13:45:19.730Z,31.02
2018-11-07T13:47:50.479Z,31.45
2018-11-07T13:50:19.897Z,32.10
2018-11-07T13:52:49.244Z,32.14
2018-11-07T13:55:17.968Z,31.76
2018-11-07T13:57:46.895Z,32.66
2018-11-07T14:00:18.020Z,33.23
2018-11-07T14:02:47.523Z,32.66
2018-11-07T14:05:16.191Z,33.54
2018-11-07T14:07:44.869Z,33.05
2018-11-07T14:10:20.564Z,33.87
2018-11-07T14:12:50.656Z,33.76
2018-11-07T14:15:19.529Z,34.26
2018-11-07T14:17:48.131Z,34.13
2018-11-07T14:20:16.896Z,34.63
2018-11-07T14:22:45.614Z,35.11
2018-11-07T14:25:14.621Z,35.12
2018-11-07T14:27:43.412Z,35.29
2018-11-07T14:30:14.660Z,34.53
2018-11-07T14:32:51.386Z,34.51
2018-11-07T14:35:20.317Z,34.81
2018-11-07T14:37:48.929Z,34.98
2018-11-07T14:40:17.461Z,35.56
2018-11-07T14:42:46.131Z,35.02
2018-11-07T14:45:14.684Z,35.37
2018-11-07T14:47:43.591Z,35.38
2018-11-07T14:50:12.844Z,35.45
2018-11-07T14:52:48.182Z,36.35
2018-11-07T14:55:16.915Z,36.13
2018-11-07T14:57:45.555Z,35.64
2018-11-07T15:00:15.786Z,35.69
2018-11-07T15:02:45.034Z,35.99
2018-11-07T15:05:14.785Z,36.03
2018-11-07T15:07:43.955Z,36.39
2018-11-07T15:10:13.593Z,36.23
2018-11-07T15:12:42.321Z,36.85
2018-11-07T15:15:13.711Z,36.56
2018-11-07T15:17:42.382Z,36.36
2018-11-07T15:20:12.411Z,37.15
2018-11-07T15:22:41.050Z,36.64
2018-11-07T15:25:11.241Z,37.37
2018-11-07T15:27:40.272Z,37.44
2018-11-07T15:30:10.191Z,37.14
2018-11-07T15:32:39.200Z,37.13
2018-11-07T15:35:08.731Z,36.64
2018-11-07T15:37:38.175Z,37.49
2018-11-07T15:40:08.993Z,36.96
2018-11-07T15:42:37.643Z,37.19
2018-11-07T15:45:08.614Z,37.60
2018-11-07T15:47:37.412Z,37.04
2018-11-07T15:50:11.471Z,38.07
2018-11-07T15:52:40.125Z,37.77
2018-11-07T15:55:09.246Z,38.58
2018-11-07T15:57:37.803Z,38.74
2018-11-07T16:00:09.104Z,39.58
2018-11-07T16:02:37.906Z,39.90
2018-11-07T16:05:07.377Z,40.47
2018-11-07T16:07:36.107Z,40.30
2018-11-07T16:10:05.443Z,41.11
2018-11-07T16:12:33.979Z,42.25
2018-11-07T16:15:03.268Z,42.97
2018-11-07T16:17:32.295Z,43.70
2018-11-07T16:20:02.771Z,44.00
2018-11-07T16:22:31.647Z,43.57
2018-11-07T16:25:00.368Z,44.78
2018-11-07T16:27:29.158Z,44.68
2018-11-07T16:29:57.963Z,45.41
2018-11-07T16:32:26.534Z,45.89
2018-11-07T16:34:55.186Z,46.74
2018-11-07T16:37:23.833Z,47.60
2018-11-07T16:39:52.703Z,47.85
2018-11-07T16:42:21.347Z,48.46
2018-11-07T16:44:50.030Z,48.64
2018-11-07T16:47:18.684Z,48.49
2018-11-07T16:49:47.438Z,48.69
2018-11-07T16:52:16.186Z,49.41
2018-11-07T16:54:44.901Z,49.96
2018-11-07T16:57:13.597Z,50.23
2018-11-07T16:59:42.211Z,49.98
2018-11-07T17:02:10.935Z,49.68
2018-11-07T17:04:39.620Z,50.78
2018-11-07T17:07:08.789Z,50.59
2018-11-07T17:09:37.246Z,50.38
2018-11-07T17:12:06.176Z,50.50
2018-11-07T17:14:34.900Z,50.73
2018-11-07T17:17:03.708Z,50.32
2018-11-07T17:19:32.782Z,51.06
2018-11-07T17:22:01.602Z,51.07
2018-11-07T17:24:30.383Z,51.59
2018-11-07T17:26:58.894Z,51.22
2018-11-07T17:29:27.638Z,50.72
2018-11-07T17:31:56.418Z,51.11
2018-11-07T17:34:25.118Z,51.42
2018-11-07T17:36:53.870Z,50.81
2018-11-07T17:42:02.846Z,51.06
2018-11-07T17:44:31.530Z,51.19
2018-11-07T17:47:02.741Z,51.58
2018-11-07T17:49:31.506Z,52.05
2018-11-07T17:52:00.106Z,51.79
2018-11-07T17:54:29.015Z,52.10
2018-11-07T17:56:57.697Z,51.52
2018-11-07T17:59:26.373Z,52.02
2018-11-07T18:01:55.226Z,51.72
2018-11-07T18:04:23.907Z,52.30
2018-11-07T18:06:52.655Z,52.19
2018-11-07T18:09:21.335Z,52.80
2018-11-07T18:11:49.987Z,52.26
2018-11-07T18:14:22.569Z,51.96
2018-11-07T18:16:51.236Z,51.85
2018-11-07T18:19:24.749Z,51.93
2018-11-07T18:21:53.754Z,51.67
2018-11-07T18:24:22.509Z,51.54
2018-11-07T18:26:51.444Z,51.27
2018-11-07T18:29:20.330Z,51.42
2018-11-07T18:31:49.065Z,51.75
2018-11-07T18:34:17.837Z,51.53
2018-11-07T18:36:46.563Z,51.58
2018-11-07T18:39:15.482Z,51.88
2018-11-07T18:41:44.235Z,51.82
2018-11-07T18:44:12.983Z,51.92
2018-11-07T18:46:41.709Z,52.18
2018-11-07T18:49:10.307Z,51.46
2018-11-07T18:51:39.010Z,52.19
2018-11-07T18:54:07.745Z,52.00
2018-11-07T18:56:36.692Z,52.07
2018-11-07T18:59:05.410Z,52.38
2018-11-07T19:01:34.012Z,51.92
2018-11-07T19:04:02.563Z,52.08
2018-11-07T19:06:31.373Z,51.54
2018-11-07T19:09:00.211Z,51.52
2018-11-07T19:11:28.970Z,51.62
2018-11-07T19:13:57.625Z,51.40
2018-11-07T19:16:26.277Z,51.66
2018-11-07T19:18:54.889Z,52.15
2018-11-07T19:21:23.509Z,51.47
2018-11-07T19:23:52.146Z,51.38
2018-11-07T19:26:20.785Z,51.78
2018-11-07T19:28:49.394Z,52.38
2018-11-07T19:31:18.118Z,51.26
2018-11-07T19:33:46.746Z,51.33
2018-11-07T19:36:15.389Z,51.15
2018-11-07T19:38:43.931Z,51.35
2018-11-07T19:41:12.664Z,51.62
2018-11-07T19:43:41.262Z,51.86
2018-11-07T19:46:09.843Z,51.60
2018-11-07T19:48:38.386Z,51.38
2018-11-07T19:51:07.979Z,51.22
2018-11-07T19:53:36.467Z,51.68
2018-11-07T19:56:05.269Z,51.92
2018-11-07T19:58:34.048Z,51.71
2018-11-07T20:01:02.656Z,51.66
2018-11-07T20:03:31.312Z,52.45
2018-11-07T20:05:59.971Z,52.49
2018-11-07T20:08:28.677Z,51.66
2018-11-07T20:10:57.324Z,52.04
2018-11-07T20:13:26.076Z,51.87
2018-11-07T20:15:54.645Z,52.38
2018-11-07T20:18:23.831Z,51.56
2018-11-07T20:20:52.555Z,51.96
2018-11-07T20:23:21.783Z,52.53
2018-11-07T20:25:50.289Z,52.33
2018-11-07T20:28:19.032Z,52.23
2018-11-07T20:30:47.549Z,51.74
2018-11-07T20:33:16.957Z,51.71
2018-11-07T20:35:45.640Z,51.61
2018-11-07T20:38:14.195Z,52.40
2018-11-07T20:40:42.900Z,52.12
2018-11-07T20:43:11.499Z,52.23
2018-11-07T20:45:40.214Z,52.73
2018-11-07T20:48:08.885Z,52.25
2018-11-07T20:50:37.517Z,52.28
2018-11-07T20:53:06.234Z,52.88
2018-11-07T20:55:34.794Z,52.29
2018-11-07T20:58:03.372Z,52.37
2018-11-07T21:00:31.941Z,52.76
2018-11-07T21:03:00.564Z,52.81
2018-11-07T21:05:29.164Z,52.92
2018-11-07T21:07:57.777Z,52.76
2018-11-07T21:10:26.315Z,52.50
2018-11-07T21:12:54.935Z,53.27
2018-11-07T21:15:23.772Z,53.02
2018-11-07T21:17:52.480Z,53.74
2018-11-07T21:20:21.225Z,53.34
2018-11-07T21:22:49.919Z,52.73
2018-11-07T21:25:18.568Z,53.57
2018-11-07T21:27:47.136Z,53.37
2018-11-07T21:30:15.929Z,52.99
2018-11-07T21:32:44.873Z,53.56
2018-11-07T21:35:13.626Z,53.10
2018-11-07T21:37:42.176Z,53.44
2018-11-07T21:40:15.210Z,53.25
2018-11-07T21:42:44.023Z,52.67
2018-11-07T21:45:13.460Z,53.24
2018-11-07T21:47:42.894Z,53.92
2018-11-07T21:50:13.059Z,52.94
2018-11-07T21:52:41.826Z,53.34
2018-11-07T21:55:10.484Z,53.45
2018-11-07T21:57:39.804Z,53.09
2018-11-07T22:00:10.635Z,52.94
2018-11-07T22:02:39.332Z,53.08
2018-11-07T22:05:08.612Z,52.64
2018-11-07T22:07:37.315Z,52.60
2018-11-07T22:10:06.568Z,52.93
2018-11-07T22:12:35.343Z,52.95
2018-11-07T22:15:03.945Z,53.76
2018-11-07T22:17:32.707Z,53.38
2018-11-07T22:20:01.564Z,52.98
2018-11-07T22:22:30.157Z,52.97
2018-11-07T22:24:58.868Z,53.43
2018-11-07T22:27:27.546Z,53.02
2018-11-07T22:29:56.130Z,53.84
2018-11-07T22:32:24.710Z,53.07
2018-11-07T22:34:53.336Z,53.56
2018-11-07T22:37:21.886Z,53.30
2018-11-07T22:39:50.517Z,53.68
2018-11-07T22:42:19.050Z,54.35
2018-11-07T22:44:47.635Z,54.21
2018-11-07T22:47:16.266Z,53.46
2018-11-07T22:49:44.865Z,53.68
2018-11-07T22:52:13.423Z,53.87
2018-11-07T22:54:42.034Z,54.26
2018-11-07T22:57:10.643Z,54.33
2018-11-07T22:59:39.221Z,54.14
2018-11-07T23:02:07.866Z,54.45
2018-11-07T23:04:36.471Z,54.58
2018-11-07T23:07:05.030Z,54.52
2018-11-07T23:09:33.689Z,54.80
2018-11-07T23:12:02.306Z,54.19
2018-11-07T23:14:30.893Z,54.75
2018-11-07T23:16:59.463Z,54.67
2018-11-07T23:19:28.122Z,54.98
2018-11-07T23:21:56.716Z,54.85
2018-11-07T23:24:25.409Z,55.23
2018-11-07T23:26:54.069Z,54.73
2018-11-07T23:29:22.600Z,54.98
2018-11-07T23:31:51.112Z,54.57
2018-11-07T23:34:19.645Z,54.58
2018-11-07T23:36:48.244Z,54.32
2018-11-07T23:39:16.763Z,54.63
2018-11-07T23:41:45.438Z,53.99
2018-11-07T23:44:13.964Z,54.98
2018-11-07T23:46:42.545Z,54.63
2018-11-07T23:49:11.013Z,55.18
2018-11-07T23:51:48.441Z,55.12
2018-11-07T23:54:18.523Z,55.09
2018-11-07T23:56:47.096Z,55.29
2018-11-07T23:59:15.698Z,55.09
